Time;durP1;ratioP1;P1;durP2;ratioP2;P2;SDS_P1;SDS_P2;PMS_P1;PMS_P2;Temp;Humidity;BMP_temperature;BMP_pressure;BME280_temperature;BME280_humidity;BME280_pressure;Samples;Min_cycle;Max_cycle;Signal;HPM_P1;HPM_P2
2021/12/22 00:02:02;;;;;;;27.00;10.38;;;-2.90;99.90;;;;;;5033002;28;20030;-56
2021/12/22 00:04:27;;;;;;;28.08;10.40;;;-3.00;99.90;;;;;;5032672;28;20022;-59
2021/12/22 00:06:53;;;;;;;20.00;10.10;;;-2.90;99.90;;;;;;5032784;28;20026;-58
2021/12/22 00:09:19;;;;;;;29.00;11.50;;;-2.90;99.90;;;;;;5031340;28;20401;-59
2021/12/22 00:11:45;;;;;;;23.98;8.95;;;-2.80;99.90;;;;;;5031972;28;20476;-59
2021/12/22 00:14:11;;;;;;;25.83;9.13;;;-2.80;99.90;;;;;;5031399;28;20026;-59
2021/12/22 00:16:37;;;;;;;25.38;10.77;;;-2.80;99.90;;;;;;5032508;28;20026;-57
2021/12/22 00:19:04;;;;;;;30.13;11.25;;;-2.80;99.90;;;;;;5031345;28;20032;-59
2021/12/22 00:21:29;;;;;;;26.38;9.63;;;-2.80;99.90;;;;;;5031932;28;20054;-58
2021/12/22 00:23:55;;;;;;;29.63;11.02;;;-2.90;99.90;;;;;;5032567;28;20068;-59
2021/12/22 00:26:22;;;;;;;31.25;10.30;;;-2.90;99.90;;;;;;5032513;28;20033;-54
2021/12/22 00:28:48;;;;;;;23.80;9.55;;;-2.80;99.90;;;;;;5031264;28;20025;-57
2021/12/22 00:31:15;;;;;;;31.25;11.15;;;-2.90;99.90;;;;;;5032553;28;20018;-56
2021/12/22 00:33:49;;;;;;;25.85;10.48;;;-2.90;99.90;;;;;;5031524;28;20033;-59
2021/12/22 00:36:20;;;;;;;24.50;9.95;;;-2.80;99.90;;;;;;5032347;28;20029;-58
2021/12/22 00:38:46;;;;;;;31.05;9.80;;;-2.90;99.90;;;;;;5032601;28;20021;-59
2021/12/22 00:41:12;;;;;;;30.67;10.70;;;-2.90;99.90;;;;;;5031498;28;20033;-58
2021/12/22 00:43:38;;;;;;;35.95;10.27;;;-2.90;99.90;;;;;;5031138;28;20089;-59
2021/12/22 00:46:04;;;;;;;24.48;9.40;;;-2.90;99.90;;;;;;5032870;28;20486;-58
2021/12/22 00:48:30;;;;;;;25.13;9.10;;;-3.00;99.90;;;;;;5033605;28;20029;-58
2021/12/22 00:50:56;;;;;;;33.80;10.65;;;-3.10;99.90;;;;;;5034641;28;20029;-58
2021/12/22 00:53:22;;;;;;;26.17;9.52;;;-3.10;99.90;;;;;;5035833;28;20022;-55
2021/12/22 00:55:48;;;;;;;22.42;9.27;;;-3.20;99.90;;;;;;5035730;28;20017;-56
2021/12/22 00:58:15;;;;;;;32.03;10.00;;;-3.20;99.90;;;;;;5036143;28;20024;-57
2021/12/22 01:00:41;;;;;;;24.55;9.32;;;-3.40;99.90;;;;;;5035676;28;20053;-55
2021/12/22 01:03:07;;;;;;;22.70;9.00;;;-3.20;99.90;;;;;;5035658;28;20045;-58
2021/12/22 01:05:33;;;;;;;24.60;9.35;;;-3.10;99.90;;;;;;5035539;28;20022;-59
2021/12/22 01:07:59;;;;;;;25.83;10.77;;;-3.20;99.90;;;;;;5045128;28;20108;-58
2021/12/22 01:10:27;;;;;;;25.25;10.43;;;-3.20;99.90;;;;;;5055442;28;20069;-57
2021/12/22 01:12:55;;;;;;;30.30;9.20;;;-3.30;99.90;;;;;;5054137;28;20075;-59
2021/12/22 01:15:22;;;;;;;25.70;9.68;;;-3.30;99.90;;;;;;5054814;28;20013;-55
2021/12/22 01:17:51;;;;;;;27.98;9.77;;;-3.20;99.90;;;;;;5054337;28;20029;-57
2021/12/22 01:20:32;;;;;;;29.38;11.70;;;-3.30;99.90;;;;;;5054406;28;20029;-59
2021/12/22 01:23:05;;;;;;;25.70;9.25;;;-3.40;99.90;;;;;;5055315;28;20108;-58
2021/12/22 01:25:42;;;;;;;22.60;9.13;;;-3.30;99.90;;;;;;5055232;28;20025;-56
2021/12/22 01:28:08;;;;;;;28.15;9.73;;;-3.20;99.90;;;;;;5053946;28;20025;-58
2021/12/22 01:30:35;;;;;;;26.98;8.43;;;-3.10;99.90;;;;;;5053805;28;20032;-56
2021/12/22 01:33:03;;;;;;;29.10;10.50;;;-3.10;99.90;;;;;;5055336;28;20033;-56
2021/12/22 01:35:31;;;;;;;32.65;11.50;;;-3.20;99.90;;;;;;5053548;28;20022;-57
2021/12/22 01:37:58;;;;;;;19.25;9.07;;;-3.30;99.90;;;;;;5055034;28;20087;-56
2021/12/22 01:40:24;;;;;;;21.60;9.52;;;-3.20;99.90;;;;;;5053912;28;20067;-56
2021/12/22 01:42:54;;;;;;;22.02;9.15;;;-3.30;99.90;;;;;;5054984;28;20108;-58
2021/12/22 01:51:54;;;;;;;20.17;8.57;;;-3.50;99.90;;;;;;5055762;28;20051;-55
2021/12/22 01:54:21;;;;;;;30.13;10.38;;;-3.60;99.90;;;;;;5054926;28;20075;-56
2021/12/22 01:56:48;;;;;;;26.95;9.63;;;-3.50;99.90;;;;;;5054607;28;20032;-58
2021/12/22 01:59:14;;;;;;;33.80;10.13;;;-3.50;99.90;;;;;;5053723;28;20029;-55
2021/12/22 02:01:40;;;;;;;22.00;8.80;;;-3.50;99.90;;;;;;5053361;28;20021;-55
2021/12/22 02:04:10;;;;;;;19.50;7.78;;;-3.50;99.90;;;;;;5054437;28;20025;-55
2021/12/22 02:06:41;;;;;;;21.25;9.15;;;-3.60;99.90;;;;;;5053652;28;20027;-55
2021/12/22 02:09:09;;;;;;;23.20;8.87;;;-3.50;99.90;;;;;;5054299;28;20023;-55
2021/12/22 02:11:35;;;;;;;21.02;9.55;;;-3.50;99.90;;;;;;5053121;28;20479;-54
2021/12/22 02:14:04;;;;;;;24.85;9.20;;;-3.50;99.90;;;;;;5054448;28;20025;-56
2021/12/22 02:16:34;;;;;;;27.60;9.98;;;-3.40;99.90;;;;;;5052734;28;20123;-55
2021/12/22 02:19:01;;;;;;;29.42;11.68;;;-3.30;99.90;;;;;;5052898;28;20021;-57
2021/12/22 02:21:31;;;;;;;51.83;16.55;;;-3.30;99.90;;;;;;5053974;28;20078;-57
2021/12/22 02:23:59;;;;;;;35.22;10.52;;;-3.20;99.90;;;;;;5052853;28;20475;-55
2021/12/22 02:26:39;;;;;;;19.00;8.20;;;-3.30;99.90;;;;;;5053988;28;20025;-58
2021/12/22 02:29:16;;;;;;;21.75;8.38;;;-3.40;99.90;;;;;;5052596;28;20021;-56
2021/12/22 02:31:46;;;;;;;19.35;7.90;;;-3.40;99.90;;;;;;5053921;28;20056;-55
2021/12/22 02:34:15;;;;;;;22.73;8.02;;;-3.40;99.90;;;;;;5052844;28;20028;-57
2021/12/22 02:36:43;;;;;;;31.98;10.18;;;-3.40;99.90;;;;;;5052471;28;20021;-52
2021/12/22 02:39:09;;;;;;;38.00;12.65;;;-3.40;99.90;;;;;;5053810;28;20017;-58
2021/12/22 02:41:39;;;;;;;33.20;12.18;;;-3.30;99.90;;;;;;5053721;28;20021;-54
2021/12/22 02:44:08;;;;;;;19.65;8.35;;;-3.40;99.90;;;;;;5053248;28;20036;-52
2021/12/22 02:46:37;;;;;;;21.88;8.60;;;-3.40;99.90;;;;;;5053676;28;20075;-54
2021/12/22 02:49:08;;;;;;;18.67;7.50;;;-3.40;99.90;;;;;;5053068;28;20040;-56
2021/12/22 02:51:35;;;;;;;27.02;10.18;;;-3.50;99.90;;;;;;5053626;28;20029;-55
2021/12/22 02:54:17;;;;;;;20.63;8.82;;;-3.50;99.90;;;;;;5052234;28;20051;-55
2021/12/22 02:59:47;;;;;;;21.42;7.72;;;-3.50;99.90;;;;;;5053510;28;20021;-59
2021/12/22 03:02:20;;;;;;;28.10;9.45;;;-3.30;99.90;;;;;;5053645;28;20483;-55
2021/12/22 03:04:56;;;;;;;32.05;10.90;;;-3.30;99.90;;;;;;5053415;28;20109;-58
2021/12/22 03:07:25;;;;;;;24.50;10.07;;;-3.10;99.90;;;;;;5053651;28;20123;-53
2021/12/22 03:09:59;;;;;;;20.92;8.32;;;-3.00;99.90;;;;;;5053464;28;20021;-55
2021/12/22 03:12:25;;;;;;;23.17;8.52;;;-3.10;99.90;;;;;;5053243;28;20021;-57
2021/12/22 03:14:51;;;;;;;22.17;8.10;;;-3.00;99.90;;;;;;5053386;28;20021;-57
2021/12/22 03:17:16;;;;;;;16.83;8.23;;;-3.10;99.90;;;;;;5051724;28;20021;-55
2021/12/22 03:19:42;;;;;;;20.20;9.52;;;-3.10;99.90;;;;;;5053140;28;20033;-59
2021/12/22 03:22:10;;;;;;;35.28;10.48;;;-3.30;99.90;;;;;;5053057;28;20052;-57
2021/12/22 03:24:38;;;;;;;18.98;8.05;;;-3.30;99.90;;;;;;5053014;28;20029;-56
2021/12/22 03:27:04;;;;;;;21.77;9.38;;;-3.30;99.90;;;;;;5051725;28;20024;-57
2021/12/22 03:29:32;;;;;;;27.60;10.07;;;-3.20;99.90;;;;;;5052109;28;20029;-56
2021/12/22 03:31:58;;;;;;;23.05;9.38;;;-3.20;99.90;;;;;;5053008;28;20028;-56
2021/12/22 03:34:24;;;;;;;23.85;8.65;;;-3.20;99.90;;;;;;5052980;28;20028;-58
2021/12/22 03:36:50;;;;;;;23.42;8.85;;;-3.20;99.90;;;;;;5053160;28;20013;-55
2021/12/22 03:39:16;;;;;;;20.75;9.23;;;-3.20;99.90;;;;;;5052847;28;20080;-54
2021/12/22 03:41:44;;;;;;;36.67;10.60;;;-3.20;99.90;;;;;;5053187;28;20114;-57
2021/12/22 03:44:11;;;;;;;29.15;10.30;;;-3.20;99.90;;;;;;5052980;28;20040;-56
2021/12/22 03:46:37;;;;;;;26.50;10.32;;;-3.10;99.90;;;;;;5051532;28;20040;-57
2021/12/22 03:49:06;;;;;;;23.50;10.10;;;-3.10;99.90;;;;;;5051864;28;20144;-59
2021/12/22 03:51:31;;;;;;;25.83;9.05;;;-3.00;99.90;;;;;;5051764;28;20033;-59
2021/12/22 03:53:57;;;;;;;28.75;9.23;;;-3.00;99.90;;;;;;5052151;28;20032;-58
2021/12/22 03:56:23;;;;;;;34.15;10.85;;;-3.00;99.90;;;;;;5051514;28;20017;-58
2021/12/22 03:58:49;;;;;;;30.55;10.65;;;-2.90;99.90;;;;;;5051364;28;20025;-59
2021/12/22 04:01:15;;;;;;;27.88;10.13;;;-2.90;99.90;;;;;;5051436;28;20079;-59
2021/12/22 04:03:43;;;;;;;32.92;10.27;;;-2.90;99.90;;;;;;5052821;28;20029;-59
2021/12/22 04:06:09;;;;;;;28.77;11.82;;;-2.80;99.90;;;;;;5052183;28;20078;-57
2021/12/22 04:08:35;;;;;;;42.55;12.63;;;-2.80;99.90;;;;;;5052551;28;20025;-57
2021/12/22 04:11:01;;;;;;;45.20;14.43;;;-2.60;99.90;;;;;;5052171;28;20028;-58
2021/12/22 04:13:26;;;;;;;43.05;12.15;;;-2.60;99.90;;;;;;5052666;28;20032;-58
2021/12/22 04:15:52;;;;;;;36.35;9.98;;;-2.60;99.90;;;;;;5051593;28;20112;-58
2021/12/22 04:18:19;;;;;;;45.95;12.73;;;-2.50;99.90;;;;;;5051271;28;20021;-57
2021/12/22 04:20:44;;;;;;;47.08;12.30;;;-2.50;99.90;;;;;;5051246;28;20021;-58
2021/12/22 04:23:10;;;;;;;52.42;12.07;;;-2.60;99.90;;;;;;5054466;28;20028;-57
2021/12/22 04:25:36;;;;;;;44.80;12.68;;;-2.70;99.90;;;;;;5056436;28;20017;-59
2021/12/22 04:28:07;;;;;;;42.95;14.15;;;-2.70;99.90;;;;;;5055125;28;20025;-55
2021/12/22 04:30:49;;;;;;;51.22;15.98;;;-2.70;99.90;;;;;;5054952;28;20025;-58
2021/12/22 04:33:16;;;;;;;50.67;14.38;;;-2.60;99.90;;;;;;5055639;28;20029;-58
2021/12/22 04:35:51;;;;;;;34.75;11.85;;;-2.60;99.90;;;;;;5056051;28;20480;-58
2021/12/22 04:38:17;;;;;;;35.15;11.45;;;-2.50;99.90;;;;;;5054903;28;20025;-56
2021/12/22 04:40:43;;;;;;;32.05;11.02;;;-2.40;99.90;;;;;;5056158;28;20021;-59
2021/12/22 04:43:09;;;;;;;34.55;10.98;;;-2.30;99.90;;;;;;5054788;28;20031;-57
2021/12/22 04:45:35;;;;;;;28.83;11.60;;;-2.20;99.90;;;;;;5055880;28;20096;-56
2021/12/22 04:48:01;;;;;;;37.70;11.65;;;-2.30;99.90;;;;;;5054700;28;20017;-56
2021/12/22 04:50:27;;;;;;;68.35;13.55;;;-2.30;99.90;;;;;;5054568;28;20057;-58
2021/12/22 04:53:03;;;;;;;61.30;12.13;;;-2.40;99.90;;;;;;5056015;28;20024;-56
2021/12/22 04:55:29;;;;;;;58.47;11.15;;;-2.50;99.90;;;;;;5055675;28;20048;-57
2021/12/22 04:57:56;;;;;;;29.88;10.88;;;-2.70;99.90;;;;;;5055764;28;20021;-58
2021/12/22 05:00:26;;;;;;;30.98;10.77;;;-2.70;99.90;;;;;;5054399;28;20091;-57
2021/12/22 05:02:52;;;;;;;34.13;10.13;;;-2.50;99.90;;;;;;5054335;28;20033;-55
2021/12/22 05:05:18;;;;;;;57.33;12.38;;;-2.50;99.90;;;;;;5054172;28;20032;-55
2021/12/22 05:07:44;;;;;;;28.13;10.15;;;-2.50;99.90;;;;;;5054215;28;20032;-55
2021/12/22 05:10:10;;;;;;;35.38;10.68;;;-2.50;99.90;;;;;;5054167;28;20052;-56
2021/12/22 05:12:36;;;;;;;31.48;10.52;;;-2.50;99.90;;;;;;5055533;28;20095;-55
2021/12/22 05:15:03;;;;;;;47.40;11.50;;;-2.50;99.90;;;;;;5054580;28;20109;-55
2021/12/22 05:20:12;;;;;;;36.03;11.02;;;-2.80;99.90;;;;;;5055637;28;20028;-55
2021/12/22 05:22:38;;;;;;;41.67;12.00;;;-2.70;99.90;;;;;;5055434;28;20032;-56
2021/12/22 05:25:06;;;;;;;39.78;12.15;;;-2.60;99.90;;;;;;5054128;28;20479;-55
2021/12/22 05:27:32;;;;;;;40.70;12.07;;;-2.70;99.90;;;;;;5055095;28;20071;-58
2021/12/22 05:29:58;;;;;;;40.05;12.05;;;-2.60;99.90;;;;;;5053954;28;20025;-58
2021/12/22 05:32:30;;;;;;;36.60;11.13;;;-2.50;99.90;;;;;;5054052;28;20075;-57
2021/12/22 05:34:55;;;;;;;53.00;12.48;;;-2.50;99.90;;;;;;5053999;28;20025;-56
2021/12/22 05:37:21;;;;;;;33.78;9.98;;;-2.40;99.90;;;;;;5054893;28;20017;-59
2021/12/22 05:39:47;;;;;;;27.92;10.18;;;-2.40;99.90;;;;;;5054027;28;20086;-59
2021/12/22 05:42:12;;;;;;;33.53;11.13;;;-2.10;99.90;;;;;;5053571;28;20028;-52
2021/12/22 05:44:38;;;;;;;34.85;10.93;;;-2.10;99.90;;;;;;5029614;28;20085;-58
2021/12/22 05:47:04;;;;;;;31.50;11.05;;;-2.20;99.90;;;;;;5015921;28;20060;-53
2021/12/22 05:49:29;;;;;;;32.22;11.80;;;-2.30;99.90;;;;;;5014896;28;20065;-55
2021/12/22 05:51:55;;;;;;;27.23;10.20;;;-2.20;99.90;;;;;;5015061;28;20023;-58
2021/12/22 05:54:21;;;;;;;27.17;10.25;;;-2.10;99.90;;;;;;5013699;28;20022;-56
2021/12/22 05:56:46;;;;;;;25.77;9.60;;;-2.00;99.90;;;;;;5014809;28;20022;-58
2021/12/22 05:59:12;;;;;;;32.38;10.77;;;-2.10;99.90;;;;;;5014903;28;20066;-58
2021/12/22 06:01:37;;;;;;;33.70;9.60;;;-2.20;99.90;;;;;;5014894;28;20427;-53
2021/12/22 06:04:03;;;;;;;103.05;13.52;;;-2.20;99.90;;;;;;5014826;28;20030;-58
2021/12/22 06:06:30;;;;;;;66.15;10.73;;;-2.30;99.90;;;;;;5014296;28;20022;-58
2021/12/22 06:08:56;;;;;;;31.33;9.73;;;-2.30;99.90;;;;;;5014716;28;20029;-58
2021/12/22 06:11:22;;;;;;;34.55;10.75;;;-2.30;99.90;;;;;;5014675;28;20022;-55
2021/12/22 06:13:47;;;;;;;63.65;10.98;;;-2.30;99.90;;;;;;5013832;28;20021;-59
2021/12/22 06:16:13;;;;;;;70.97;11.55;;;-2.40;99.90;;;;;;5014551;28;20553;-59
2021/12/22 06:18:43;;;;;;;29.65;9.50;;;-2.50;99.90;;;;;;5014606;28;20033;-56
2021/12/22 06:21:13;;;;;;;35.80;10.45;;;-2.60;99.90;;;;;;5014831;28;20014;-59
2021/12/22 06:23:39;;;;;;;42.15;10.63;;;-2.50;99.90;;;;;;5013447;28;20040;-56
2021/12/22 06:26:05;;;;;;;30.55;9.32;;;-2.40;99.90;;;;;;5013273;28;20034;-59
2021/12/22 06:28:31;;;;;;;27.85;9.35;;;-2.40;99.90;;;;;;5014280;28;20040;-57
2021/12/22 06:30:57;;;;;;;92.03;12.95;;;-2.50;99.90;;;;;;5014310;28;20026;-57
2021/12/22 06:33:22;;;;;;;27.92;8.77;;;-2.30;99.90;;;;;;5013056;28;20026;-59
2021/12/22 06:35:48;;;;;;;88.30;12.80;;;-2.30;99.90;;;;;;5014307;28;20029;-58
2021/12/22 06:38:15;;;;;;;30.25;10.52;;;-2.30;99.90;;;;;;5033847;28;20118;-58
2021/12/22 06:40:41;;;;;;;43.83;11.07;;;-2.50;99.90;;;;;;5032517;28;20040;-58
2021/12/22 06:43:07;;;;;;;34.28;11.10;;;-2.50;99.90;;;;;;5032894;28;20025;-56
2021/12/22 06:45:32;;;;;;;31.52;11.70;;;-2.50;99.90;;;;;;5032421;28;20040;-56
2021/12/22 06:47:58;;;;;;;77.97;13.05;;;-2.50;99.90;;;;;;5033822;28;20032;-56
2021/12/22 06:50:24;;;;;;;65.85;13.38;;;-2.40;99.90;;;;;;5033903;28;20033;-56
2021/12/22 06:52:50;;;;;;;55.00;11.35;;;-2.60;99.90;;;;;;5033698;28;20017;-57
2021/12/22 06:55:16;;;;;;;33.80;10.73;;;-2.60;99.90;;;;;;5033595;28;20029;-57
2021/12/22 06:57:42;;;;;;;45.30;10.80;;;-2.60;99.90;;;;;;5033842;28;20068;-54
2021/12/22 07:00:10;;;;;;;62.13;13.57;;;-2.60;99.90;;;;;;5032473;28;20029;-56
2021/12/22 07:02:43;;;;;;;28.45;9.98;;;-2.60;99.90;;;;;;5033439;28;20072;-57
2021/12/22 07:05:10;;;;;;;57.92;10.82;;;-2.60;99.90;;;;;;5032097;28;20060;-58
2021/12/22 07:07:37;;;;;;;38.47;9.50;;;-2.50;99.90;;;;;;5032688;28;20052;-52
2021/12/22 07:10:07;;;;;;;47.50;10.20;;;-2.50;99.90;;;;;;5033436;28;20052;-54
2021/12/22 07:12:34;;;;;;;35.97;10.73;;;-2.60;99.90;;;;;;5031994;28;20039;-55
2021/12/22 07:14:59;;;;;;;75.40;11.65;;;-2.60;99.90;;;;;;5032228;28;20026;-54
2021/12/22 07:17:25;;;;;;;28.90;9.25;;;-2.40;99.90;;;;;;5033340;28;20099;-58
2021/12/22 07:19:51;;;;;;;25.15;9.10;;;-2.30;99.90;;;;;;5031986;28;20057;-56
2021/12/22 07:22:17;;;;;;;31.30;10.70;;;-2.30;99.90;;;;;;5032000;28;20025;-58
2021/12/22 07:24:42;;;;;;;29.25;9.23;;;-2.40;99.90;;;;;;5033168;28;20029;-54
2021/12/22 07:27:08;;;;;;;29.42;9.95;;;-2.40;99.90;;;;;;5031785;28;20028;-57
2021/12/22 07:29:33;;;;;;;45.58;11.65;;;-2.30;99.90;;;;;;5033197;28;20084;-56
2021/12/22 07:31:59;;;;;;;30.92;10.63;;;-2.20;99.90;;;;;;5031830;28;20017;-58
2021/12/22 07:34:32;;;;;;;50.83;13.18;;;-2.30;99.90;;;;;;5031748;28;20028;-57
2021/12/22 07:37:14;;;;;;;36.20;10.55;;;-2.30;99.90;;;;;;5032082;28;20087;-56
2021/12/22 07:39:39;;;;;;;29.10;10.15;;;-2.30;99.90;;;;;;5032870;28;20033;-53
2021/12/22 07:42:05;;;;;;;32.97;10.55;;;-2.30;99.90;;;;;;5032952;28;20026;-56
2021/12/22 07:44:31;;;;;;;32.58;11.30;;;-2.30;99.90;;;;;;5032926;28;20101;-57
2021/12/22 07:46:56;;;;;;;41.33;13.02;;;-2.20;99.90;;;;;;5032824;28;20434;-55
2021/12/22 07:49:22;;;;;;;33.88;12.27;;;-2.20;99.90;;;;;;5032727;28;20112;-57
2021/12/22 07:51:47;;;;;;;33.00;11.23;;;-2.20;99.90;;;;;;5033155;28;20026;-56
2021/12/22 07:54:13;;;;;;;26.77;10.73;;;-2.20;99.90;;;;;;5031568;28;20112;-57
2021/12/22 07:56:39;;;;;;;43.60;10.43;;;-2.10;99.90;;;;;;5032783;28;20072;-54
2021/12/22 07:59:04;;;;;;;28.58;9.52;;;-2.20;99.90;;;;;;5036756;28;20028;-58
2021/12/22 08:01:32;;;;;;;29.80;9.55;;;-2.00;99.90;;;;;;5036862;28;20029;-56
2021/12/22 08:03:58;;;;;;;40.30;11.77;;;-2.00;99.90;;;;;;5037347;28;20026;-57
2021/12/22 08:06:24;;;;;;;26.80;9.57;;;-2.10;99.90;;;;;;5035688;28;20032;-58
2021/12/22 08:08:49;;;;;;;27.58;10.05;;;-2.10;99.90;;;;;;5036923;28;20030;-57
2021/12/22 08:11:15;;;;;;;50.30;10.77;;;-2.10;99.90;;;;;;5036809;28;20025;-57
2021/12/22 08:13:41;;;;;;;31.77;11.00;;;-2.10;99.90;;;;;;5035777;28;20025;-53
2021/12/22 08:16:17;;;;;;;25.77;10.32;;;-2.20;99.90;;;;;;5035153;28;20021;-56
2021/12/22 08:18:42;;;;;;;32.85;11.35;;;-2.10;99.90;;;;;;5036078;28;20026;-57
2021/12/22 08:21:08;;;;;;;55.55;13.15;;;-2.00;99.90;;;;;;5035104;28;20021;-54
2021/12/22 08:23:33;;;;;;;40.65;13.35;;;-1.80;99.90;;;;;;5035143;28;20116;-57
2021/12/22 08:25:59;;;;;;;57.92;14.63;;;-1.70;99.90;;;;;;5036321;28;20032;-57
2021/12/22 08:28:25;;;;;;;42.13;13.02;;;-2.00;99.90;;;;;;5036364;28;20075;-57
2021/12/22 08:30:50;;;;;;;37.75;12.85;;;-2.10;99.90;;;;;;5036189;28;20034;-54
2021/12/22 08:33:25;;;;;;;48.67;12.95;;;-2.20;99.90;;;;;;5036244;28;20017;-54
2021/12/22 08:38:50;;;;;;;42.58;13.02;;;-2.30;99.90;;;;;;5036434;28;20392;-56
2021/12/22 08:41:23;;;;;;;42.78;13.15;;;-2.40;99.90;;;;;;5034834;28;20021;-57
2021/12/22 08:43:51;;;;;;;39.95;13.00;;;-2.30;99.90;;;;;;5034773;28;20507;-57
2021/12/22 08:46:17;;;;;;;42.80;13.45;;;-2.20;99.90;;;;;;5035931;28;20025;-57
2021/12/22 08:48:43;;;;;;;33.67;11.65;;;-2.10;99.90;;;;;;5034581;28;20116;-57
2021/12/22 08:51:09;;;;;;;33.17;10.43;;;-2.10;99.90;;;;;;5035909;28;20029;-57
2021/12/22 08:53:35;;;;;;;32.83;12.40;;;-1.80;99.90;;;;;;5035021;28;20522;-57
2021/12/22 08:56:01;;;;;;;36.78;12.75;;;-1.80;99.90;;;;;;5034517;28;20033;-57
2021/12/22 08:58:27;;;;;;;58.72;13.70;;;-1.50;99.90;;;;;;5035998;28;20018;-57
2021/12/22 09:00:52;;;;;;;41.33;12.13;;;-1.70;99.90;;;;;;5035405;28;20064;-57
2021/12/22 09:03:18;;;;;;;40.00;12.82;;;-1.70;99.90;;;;;;5034458;28;20025;-57
2021/12/22 09:05:43;;;;;;;75.05;14.57;;;-1.80;99.90;;;;;;5021499;28;20049;-57
2021/12/22 09:08:09;;;;;;;43.20;12.85;;;-1.90;99.90;;;;;;5014589;28;20092;-57
2021/12/22 09:10:35;;;;;;;33.78;12.43;;;-2.10;99.90;;;;;;5014421;28;20026;-57
2021/12/22 09:13:09;;;;;;;34.38;11.57;;;-1.90;99.90;;;;;;5016060;28;20022;-57
2021/12/22 09:15:36;;;;;;;30.17;10.48;;;-1.60;99.90;;;;;;5015618;28;20022;-57
2021/12/22 09:18:02;;;;;;;33.25;11.30;;;-1.50;99.90;;;;;;5015904;28;20018;-57
2021/12/22 09:20:29;;;;;;;31.73;11.45;;;-1.50;99.90;;;;;;5014615;28;20030;-57
2021/12/22 09:22:55;;;;;;;27.08;10.30;;;-1.30;99.90;;;;;;5014864;28;20029;-55
2021/12/22 09:25:21;;;;;;;29.42;11.40;;;-1.10;99.90;;;;;;5014878;28;20029;-51
2021/12/22 09:27:46;;;;;;;33.20;11.00;;;-0.90;99.90;;;;;;5014471;28;20026;-54
2021/12/22 09:30:12;;;;;;;41.10;13.25;;;-1.00;99.90;;;;;;5015847;28;20120;-58
2021/12/22 09:32:38;;;;;;;28.90;11.57;;;-1.00;99.90;;;;;;5015900;28;20473;-54
2021/12/22 09:35:05;;;;;;;33.60;11.30;;;-0.90;99.90;;;;;;5015739;28;20105;-53
2021/12/22 09:37:31;;;;;;;40.38;13.43;;;-1.00;99.90;;;;;;5016598;28;20116;-55
2021/12/22 09:39:57;;;;;;;29.90;11.32;;;-1.00;99.90;;;;;;5034288;28;20480;-53
2021/12/22 09:42:23;;;;;;;32.42;11.60;;;-0.80;99.90;;;;;;5034233;28;20025;-52
2021/12/22 09:44:50;;;;;;;35.97;12.63;;;-0.70;99.90;;;;;;5034154;28;20026;-53
2021/12/22 09:47:27;;;;;;;33.67;12.07;;;-0.50;99.90;;;;;;5035029;28;20033;-52
2021/12/22 09:52:31;;;;;;;33.20;11.77;;;-0.20;99.90;;;;;;5015280;28;20046;-57
2021/12/22 09:54:59;;;;;;;32.95;11.95;;;0.00;99.90;;;;;;5015325;28;20072;-57
2021/12/22 09:57:25;;;;;;;31.23;12.38;;;0.20;99.90;;;;;;5013966;28;20045;-54
2021/12/22 09:59:54;;;;;;;28.58;10.60;;;0.30;99.90;;;;;;5014443;28;20026;-55
2021/12/22 10:02:22;;;;;;;26.75;10.60;;;0.60;99.90;;;;;;5014921;28;20026;-57
2021/12/22 10:04:49;;;;;;;32.50;11.48;;;0.80;99.90;;;;;;5014830;28;20026;-52
2021/12/22 10:07:23;;;;;;;30.83;11.27;;;1.10;99.90;;;;;;5013913;28;20036;-52
2021/12/22 10:09:49;;;;;;;25.23;11.48;;;1.10;99.90;;;;;;5013701;28;20105;-54
2021/12/22 10:12:21;;;;;;;30.63;11.93;;;1.00;99.90;;;;;;5015138;28;20093;-54
2021/12/22 10:14:53;;;;;;;29.98;12.07;;;1.10;99.90;;;;;;5031220;28;20112;-54
2021/12/22 10:17:29;;;;;;;32.53;12.40;;;0.70;99.90;;;;;;5013473;28;20104;-53
2021/12/22 10:20:25;;;;;;;34.00;12.45;;;0.70;99.90;;;;;;5018672;28;20107;-55
2021/12/22 10:22:51;;;;;;;23.85;10.88;;;0.50;99.90;;;;;;5034384;28;20100;-58
2021/12/22 10:25:28;;;;;;;35.58;13.43;;;0.60;99.90;;;;;;5034274;28;20037;-53
2021/12/22 10:28:16;;;;;;;32.70;13.50;;;0.60;99.90;;;;;;5034180;28;20029;-55
2021/12/22 10:30:43;;;;;;;35.92;13.00;;;0.60;99.90;;;;;;5034191;28;20384;-52
2021/12/22 10:33:20;;;;;;;40.30;13.45;;;0.50;99.90;;;;;;5032790;28;20017;-58
2021/12/22 10:35:51;;;;;;;29.67;11.75;;;0.60;99.90;;;;;;5031178;28;20013;-51
2021/12/22 10:38:23;;;;;;;28.85;12.25;;;0.80;99.90;;;;;;5013193;28;20022;-55
2021/12/22 10:41:07;;;;;;;34.05;13.52;;;0.90;99.90;;;;;;5014230;28;20025;-54
2021/12/22 10:43:34;;;;;;;31.60;14.45;;;1.00;99.90;;;;;;5013191;28;20026;-56
2021/12/22 10:46:02;;;;;;;36.22;12.95;;;1.10;99.90;;;;;;5014052;28;20018;-52
2021/12/22 10:51:23;;;;;;;32.20;12.73;;;1.20;99.90;;;;;;5014275;28;20083;-56
2021/12/22 10:53:50;;;;;;;31.40;13.00;;;1.20;99.90;;;;;;5012798;28;20025;-56
2021/12/22 10:56:57;;;;;;;27.05;11.73;;;1.20;99.90;;;;;;5013829;28;20021;-53
2021/12/22 10:59:22;;;;;;;33.30;12.18;;;1.10;99.90;;;;;;4934450;29;20038;-57
2021/12/22 11:01:56;;;;;;;29.52;12.23;;;1.00;99.90;;;;;;4934600;29;20031;-51
2021/12/22 11:04:42;;;;;;;34.05;13.77;;;0.90;99.90;;;;;;4918428;29;20043;-54
2021/12/22 11:07:14;;;;;;;32.10;13.07;;;0.90;99.90;;;;;;4934396;29;20035;-55
2021/12/22 11:09:40;;;;;;;;;;;0.80;99.90;;;;;;4939922;28;20032;-53
2021/12/22 11:12:06;;;;;;;31.35;11.27;;;0.90;99.90;;;;;;5013768;28;20000;-56
2021/12/22 11:14:40;;;;;;;23.27;10.80;;;1.00;99.90;;;;;;5012471;28;20029;-52
2021/12/22 11:17:11;;;;;;;29.80;11.65;;;0.90;99.90;;;;;;5012716;28;20032;-54
2021/12/22 11:20:05;;;;;;;35.55;12.95;;;0.80;99.90;;;;;;5013668;28;20026;-53
2021/12/22 11:22:46;;;;;;;29.92;12.57;;;0.80;99.90;;;;;;5012717;28;20022;-56
2021/12/22 11:25:12;;;;;;;24.30;9.10;;;0.90;99.90;;;;;;5013622;28;20056;-52
2021/12/22 11:27:38;;;;;;;28.75;12.02;;;1.20;99.90;;;;;;5012235;28;20029;-56
2021/12/22 11:30:06;;;;;;;33.92;12.32;;;1.30;99.90;;;;;;5012184;28;20030;-56
2021/12/22 11:32:32;;;;;;;28.23;11.82;;;1.40;99.90;;;;;;5012213;28;20018;-53
2021/12/22 11:35:05;;;;;;;28.73;11.65;;;1.60;99.90;;;;;;5013308;28;20022;-57
2021/12/22 11:37:31;;;;;;;26.98;11.10;;;1.70;99.90;;;;;;5013321;28;20022;-58
2021/12/22 11:39:58;;;;;;;31.98;12.45;;;1.80;99.90;;;;;;5013176;28;20032;-56
2021/12/22 11:42:28;;;;;;;29.52;11.95;;;1.90;99.90;;;;;;5012039;28;20030;-54
2021/12/22 11:44:58;;;;;;;24.93;10.73;;;1.80;99.90;;;;;;5026096;28;20025;-57
2021/12/22 11:47:25;;;;;;;23.17;10.40;;;2.00;99.90;;;;;;5052947;28;20021;-56
2021/12/22 11:49:59;;;;;;;22.20;10.40;;;1.70;99.90;;;;;;5037335;28;20120;-57
2021/12/22 11:52:34;;;;;;;23.25;10.52;;;2.00;99.90;;;;;;5032442;28;20021;-57
2021/12/22 11:55:14;;;;;;;29.80;11.93;;;1.90;99.90;;;;;;5011955;28;20018;-57
2021/12/22 11:57:42;;;;;;;24.23;10.60;;;1.90;99.90;;;;;;5025909;28;20041;-54
2021/12/22 12:00:26;;;;;;;22.13;10.43;;;1.60;99.90;;;;;;5033049;28;20021;-53
2021/12/22 12:02:52;;;;;;;26.17;10.02;;;1.50;99.90;;;;;;5032186;28;20029;-53
2021/12/22 12:05:30;;;;;;;26.30;11.13;;;1.80;99.90;;;;;;5018048;28;20021;-51
2021/12/22 12:07:59;;;;;;;26.42;11.57;;;1.70;99.90;;;;;;5039111;28;20033;-54
2021/12/22 12:10:45;;;;;;;24.98;11.55;;;1.80;99.90;;;;;;5052528;28;20060;-50
2021/12/22 12:13:42;;;;;;;27.02;10.55;;;1.80;99.90;;;;;;5051457;28;20021;-57
2021/12/22 12:22:11;;;;;;;21.63;10.48;;;1.50;99.90;;;;;;5013426;28;20037;-56
2021/12/22 12:24:38;;;;;;;25.92;10.68;;;1.60;99.90;;;;;;5013002;28;20068;-55
2021/12/22 12:27:43;;;;;;;20.92;9.90;;;1.70;99.90;;;;;;5020957;28;20028;-56
2021/12/22 12:30:15;;;;;;;27.88;10.93;;;1.90;99.90;;;;;;5031333;28;20041;-55
2021/12/22 12:32:50;;;;;;;22.80;9.93;;;1.90;99.90;;;;;;5032943;28;20029;-55
2021/12/22 12:35:35;;;;;;;22.23;9.85;;;1.80;99.90;;;;;;5032616;28;20101;-56
2021/12/22 12:38:01;;;;;;;19.20;9.00;;;1.90;99.90;;;;;;5031698;28;20026;-57
2021/12/22 12:40:54;;;;;;;25.77;10.45;;;1.80;99.90;;;;;;5051561;28;20032;-53
2021/12/22 12:43:42;;;;;;;25.08;10.20;;;1.70;99.90;;;;;;5038893;28;20025;-56
2021/12/22 12:46:21;;;;;;;23.48;10.38;;;1.80;99.90;;;;;;5016931;28;20030;-57
2021/12/22 12:48:48;;;;;;;21.98;10.65;;;1.60;99.90;;;;;;5015509;28;20037;-54
2021/12/22 12:51:16;;;;;;;21.35;9.98;;;1.60;99.90;;;;;;5039735;28;20032;-53
2021/12/22 12:53:47;;;;;;;24.88;10.77;;;1.60;99.90;;;;;;5056033;28;20066;-55
2021/12/22 12:56:15;;;;;;;24.65;9.50;;;1.60;99.90;;;;;;5054645;28;20032;-52
2021/12/22 12:59:12;;;;;;;26.17;9.43;;;1.70;99.90;;;;;;5055808;28;20029;-56
2021/12/22 13:01:50;;;;;;;23.90;10.05;;;1.80;99.90;;;;;;5055774;28;20053;-55
2021/12/22 13:04:36;;;;;;;23.77;10.23;;;1.80;99.90;;;;;;5055883;28;20017;-55
2021/12/22 13:07:02;;;;;;;22.98;10.10;;;1.80;99.90;;;;;;5054029;28;20048;-55
2021/12/22 13:09:32;;;;;;;21.35;8.82;;;1.70;99.90;;;;;;5049370;28;20025;-55